createdAt,value
2017-08-26T00:01:02.693Z,25.80
2017-08-26T00:03:30.250Z,22.30
2017-08-26T00:05:57.808Z,30.53
2017-08-26T00:08:25.332Z,25.03
2017-08-26T00:10:52.896Z,22.40
2017-08-26T00:13:20.421Z,28.00
2017-08-26T00:15:47.975Z,22.37
2017-08-26T00:18:15.579Z,23.00
2017-08-26T00:20:43.082Z,23.10
2017-08-26T00:23:10.590Z,21.10
2017-08-26T00:25:38.158Z,26.90
2017-08-26T00:28:05.668Z,25.00
2017-08-26T00:30:33.174Z,27.73
2017-08-26T00:33:01.092Z,31.23
2017-08-26T00:35:28.600Z,30.03
2017-08-26T00:37:56.104Z,27.03
2017-08-26T00:40:23.673Z,32.17
2017-08-26T00:42:51.180Z,26.23
2017-08-26T00:45:18.692Z,33.20
2017-08-26T00:47:46.258Z,27.20
2017-08-26T00:50:13.763Z,22.27
2017-08-26T00:52:41.273Z,24.83
2017-08-26T00:55:08.847Z,20.90
2017-08-26T00:57:36.349Z,24.10
2017-08-26T01:00:03.891Z,26.03
2017-08-26T01:02:31.458Z,27.63
2017-08-26T01:04:58.964Z,25.80
2017-08-26T01:07:32.196Z,23.90
2017-08-26T01:09:59.702Z,25.50
2017-08-26T01:12:27.230Z,23.20
2017-08-26T01:14:54.795Z,21.40
2017-08-26T01:17:22.308Z,27.57
2017-08-26T01:19:49.806Z,22.57
2017-08-26T01:22:17.601Z,28.13
2017-08-26T01:24:45.200Z,27.53
2017-08-26T01:27:12.727Z,28.93
2017-08-26T01:29:40.299Z,25.07
2017-08-26T01:32:07.799Z,31.30
2017-08-26T01:34:35.312Z,23.67
2017-08-26T01:37:02.884Z,29.70
2017-08-26T01:39:30.394Z,26.53
2017-08-26T01:41:57.900Z,26.43
2017-08-26T01:44:25.470Z,31.17
2017-08-26T01:46:52.975Z,31.80
2017-08-26T01:49:20.483Z,25.47
2017-08-26T01:51:48.458Z,26.10
2017-08-26T01:54:15.960Z,32.20
2017-08-26T01:56:43.478Z,26.20
2017-08-26T01:59:11.275Z,29.20
2017-08-26T02:01:38.791Z,24.27
2017-08-26T02:04:06.318Z,35.73
2017-08-26T02:06:34.193Z,24.40
2017-08-26T02:09:01.708Z,27.13
2017-08-26T02:11:29.220Z,31.33
2017-08-26T02:13:56.798Z,26.90
2017-08-26T02:16:24.375Z,25.37
2017-08-26T02:18:51.884Z,31.80
2017-08-26T02:21:19.616Z,27.07
2017-08-26T02:23:47.151Z,33.90
2017-08-26T02:26:14.654Z,37.77
2017-08-26T02:28:42.511Z,25.00
2017-08-26T02:31:10.040Z,36.00
2017-08-26T02:33:37.552Z,32.80
2017-08-26T02:36:05.338Z,25.50
2017-08-26T02:38:32.904Z,30.20
2017-08-26T02:41:00.427Z,26.37
2017-08-26T02:43:28.225Z,29.27
2017-08-26T02:45:56.563Z,28.60
2017-08-26T02:48:24.071Z,26.67
2017-08-26T02:50:51.623Z,30.43
2017-08-26T02:53:19.127Z,29.30
2017-08-26T02:55:46.662Z,29.43
2017-08-26T02:58:14.220Z,28.20
2017-08-26T03:00:41.733Z,27.63
2017-08-26T03:03:09.250Z,24.97
2017-08-26T03:05:37.139Z,24.53
2017-08-26T03:08:04.651Z,28.73
2017-08-26T03:10:32.162Z,29.00
2017-08-26T03:13:00.067Z,24.43
2017-08-26T03:15:27.582Z,27.70
2017-08-26T03:17:55.252Z,28.07
2017-08-26T03:20:22.824Z,24.53
2017-08-26T03:22:50.330Z,23.80
2017-08-26T03:25:17.836Z,25.37
2017-08-26T03:27:45.405Z,32.63
2017-08-26T03:30:12.966Z,32.80
2017-08-26T03:32:40.480Z,23.10
2017-08-26T03:35:08.265Z,23.63
2017-08-26T03:37:35.767Z,25.37
2017-08-26T03:40:03.293Z,26.60
2017-08-26T03:42:30.886Z,26.67
2017-08-26T03:44:58.402Z,26.70
2017-08-26T03:47:25.899Z,29.60
2017-08-26T03:49:53.469Z,25.10
2017-08-26T03:52:20.990Z,31.97
2017-08-26T03:54:48.522Z,33.00
2017-08-26T03:57:16.343Z,24.30
2017-08-26T03:59:43.867Z,25.90
2017-08-26T04:02:11.392Z,29.20
2017-08-26T04:04:38.956Z,26.63
2017-08-26T04:07:06.479Z,31.47
2017-08-26T04:09:34.015Z,30.40
2017-08-26T04:12:01.831Z,25.53
2017-08-26T04:14:29.339Z,27.50
2017-08-26T04:16:57.612Z,25.83
2017-08-26T04:19:25.188Z,26.30
2017-08-26T04:21:52.705Z,28.50
2017-08-26T04:24:20.215Z,23.27
2017-08-26T04:26:47.779Z,25.10
2017-08-26T04:29:15.291Z,22.67
2017-08-26T04:31:42.796Z,25.07
2017-08-26T04:34:10.660Z,24.10
2017-08-26T04:36:38.165Z,21.30
2017-08-26T04:39:05.671Z,27.90
2017-08-26T04:41:33.237Z,25.27
2017-08-26T04:44:00.736Z,26.70
2017-08-26T04:46:28.271Z,24.10
2017-08-26T04:48:56.595Z,22.20
2017-08-26T04:51:24.114Z,23.83
2017-08-26T04:53:51.619Z,23.73
2017-08-26T04:56:19.195Z,24.93
2017-08-26T04:58:46.720Z,26.70
2017-08-26T05:01:14.238Z,24.77
2017-08-26T05:03:41.795Z,24.87
2017-08-26T05:06:09.304Z,24.30
2017-08-26T05:08:36.813Z,22.07
2017-08-26T05:11:04.595Z,23.00
2017-08-26T05:13:32.138Z,19.40
2017-08-26T05:15:59.656Z,21.80
2017-08-26T05:18:27.463Z,19.60
2017-08-26T05:20:54.992Z,19.43
2017-08-26T05:23:22.499Z,19.70
2017-08-26T05:25:50.039Z,20.60
2017-08-26T05:28:17.548Z,20.03
2017-08-26T05:30:45.062Z,19.60
2017-08-26T05:33:12.869Z,20.40
2017-08-26T05:35:40.419Z,20.60
2017-08-26T05:38:07.931Z,20.13
2017-08-26T05:40:35.746Z,18.53
2017-08-26T05:43:03.255Z,28.53
2017-08-26T05:45:30.766Z,19.03
2017-08-26T05:47:58.308Z,19.53
2017-08-26T05:50:25.824Z,17.33
2017-08-26T05:52:53.336Z,18.97
2017-08-26T05:55:20.894Z,21.40
2017-08-26T05:57:48.444Z,18.90
2017-08-26T06:00:15.967Z,17.27
2017-08-26T06:02:43.767Z,20.27
2017-08-26T06:05:11.286Z,18.03
2017-08-26T06:07:38.800Z,17.60
2017-08-26T06:10:06.614Z,14.63
2017-08-26T06:12:34.123Z,16.17
2017-08-26T06:15:01.635Z,16.00
2017-08-26T06:17:29.192Z,17.50
2017-08-26T06:19:56.707Z,14.70
2017-08-26T06:22:24.219Z,14.97
2017-08-26T06:24:51.787Z,16.97
2017-08-26T06:27:19.295Z,19.50
2017-08-26T06:29:46.816Z,16.20
2017-08-26T06:32:14.707Z,17.63
2017-08-26T06:34:42.223Z,15.17
2017-08-26T06:37:09.727Z,15.90
2017-08-26T06:39:37.691Z,15.63
2017-08-26T06:42:05.199Z,16.07
2017-08-26T06:44:32.722Z,13.80
2017-08-26T06:47:00.285Z,14.83
2017-08-26T06:49:27.795Z,15.17
2017-08-26T06:51:55.311Z,13.73
2017-08-26T06:54:23.168Z,19.43
2017-08-26T06:56:50.696Z,16.53
2017-08-26T06:59:18.209Z,15.00
2017-08-26T07:01:46.141Z,19.07
2017-08-26T07:04:13.651Z,18.17
2017-08-26T07:06:41.155Z,14.77
2017-08-26T07:09:09.036Z,17.63
2017-08-26T07:11:36.548Z,14.90
2017-08-26T07:14:04.079Z,16.50
2017-08-26T07:16:31.675Z,16.83
2017-08-26T07:18:59.179Z,14.93
2017-08-26T07:21:26.699Z,17.90
2017-08-26T07:23:54.261Z,16.30
2017-08-26T07:26:21.771Z,14.67
2017-08-26T07:28:49.291Z,13.17
2017-08-26T07:31:17.557Z,15.63
2017-08-26T07:33:45.058Z,15.37
2017-08-26T07:36:13.335Z,13.40
2017-08-26T07:38:41.179Z,16.80
2017-08-26T07:41:08.695Z,17.03
2017-08-26T07:43:36.204Z,15.30
2017-08-26T07:46:03.774Z,18.83
2017-08-26T07:48:31.288Z,16.10
2017-08-26T07:50:58.795Z,14.27
2017-08-26T07:53:26.603Z,19.07
2017-08-26T07:55:54.119Z,13.00
2017-08-26T07:58:21.628Z,19.50
2017-08-26T08:00:49.443Z,16.90
2017-08-26T08:03:16.959Z,15.90
2017-08-26T08:05:44.469Z,16.90
2017-08-26T08:08:12.023Z,14.27
2017-08-26T08:10:39.540Z,15.83
2017-08-26T08:13:07.052Z,15.20
2017-08-26T08:15:35.034Z,15.17
2017-08-26T08:18:02.544Z,12.67
2017-08-26T08:20:30.051Z,12.17
2017-08-26T08:22:57.619Z,13.47
2017-08-26T08:25:25.137Z,14.77
2017-08-26T08:27:52.638Z,14.47
2017-08-26T08:30:20.508Z,11.10
2017-08-26T08:32:48.012Z,13.50
2017-08-26T08:35:15.540Z,13.30
2017-08-26T08:37:43.201Z,13.90
2017-08-26T08:40:10.729Z,10.03
2017-08-26T08:42:38.235Z,11.13
2017-08-26T08:45:06.019Z,11.13
2017-08-26T08:47:33.519Z,12.40
2017-08-26T08:50:01.037Z,9.50
2017-08-26T08:52:28.596Z,11.77
2017-08-26T08:54:56.099Z,9.43
2017-08-26T08:57:23.608Z,10.30
2017-08-26T08:59:51.168Z,9.87
2017-08-26T09:02:18.671Z,10.63
2017-08-26T09:04:46.175Z,10.50
2017-08-26T09:07:13.727Z,7.63
2017-08-26T09:09:41.227Z,8.37
2017-08-26T09:12:08.732Z,8.67
2017-08-26T09:14:36.327Z,9.37
2017-08-26T09:17:03.824Z,9.17
2017-08-26T09:19:31.340Z,7.93
2017-08-26T09:21:58.919Z,10.77
2017-08-26T09:24:26.427Z,15.70
2017-08-26T09:26:53.936Z,11.47
2017-08-26T09:29:21.739Z,11.00
2017-08-26T09:31:49.243Z,10.53
2017-08-26T09:34:16.744Z,9.17
2017-08-26T09:36:44.548Z,9.77
2017-08-26T09:39:12.051Z,9.03
2017-08-26T09:41:39.552Z,9.63
2017-08-26T09:44:07.104Z,8.87
2017-08-26T09:46:34.607Z,8.80
2017-08-26T09:49:02.119Z,15.00
2017-08-26T09:51:29.676Z,8.23
2017-08-26T09:53:57.177Z,8.10
2017-08-26T09:56:24.675Z,13.50
2017-08-26T09:58:52.239Z,9.60
2017-08-26T10:01:19.739Z,10.57
2017-08-26T10:03:47.237Z,8.33
2017-08-26T10:06:15.035Z,9.00
2017-08-26T10:08:42.531Z,8.43
2017-08-26T10:11:10.035Z,9.53
2017-08-26T10:13:37.568Z,13.13
2017-08-26T10:16:05.067Z,9.90
2017-08-26T10:18:32.571Z,7.97
2017-08-26T10:21:00.110Z,9.67
2017-08-26T10:23:27.615Z,10.10
2017-08-26T10:25:55.129Z,9.53
2017-08-26T10:28:22.702Z,10.77
2017-08-26T10:30:50.210Z,10.57
2017-08-26T10:33:17.719Z,10.63
2017-08-26T10:35:45.659Z,9.67
2017-08-26T10:38:13.157Z,8.97
2017-08-26T10:40:40.655Z,8.43
2017-08-26T10:43:09.039Z,9.57
2017-08-26T10:45:36.600Z,10.07
2017-08-26T10:48:04.102Z,10.20
2017-08-26T10:50:31.660Z,10.07
2017-08-26T10:52:59.159Z,9.83
2017-08-26T10:55:27.644Z,10.87
2017-08-26T10:57:55.178Z,10.03
2017-08-26T11:00:22.676Z,10.13
2017-08-26T11:02:50.183Z,7.70
2017-08-26T11:05:17.982Z,9.90
2017-08-26T11:07:45.474Z,8.93
2017-08-26T11:10:13.059Z,7.10
2017-08-26T11:12:40.780Z,11.00
2017-08-26T11:15:08.307Z,9.63
2017-08-26T11:17:35.822Z,8.17
2017-08-26T11:20:03.686Z,9.13
2017-08-26T11:22:31.282Z,16.57
2017-08-26T11:24:58.779Z,9.67
2017-08-26T11:27:26.635Z,8.27
2017-08-26T11:29:54.136Z,11.17
2017-08-26T11:32:21.635Z,9.40
2017-08-26T11:34:49.192Z,9.83
2017-08-26T11:37:16.763Z,10.30
2017-08-26T11:39:44.350Z,9.67
2017-08-26T11:42:12.246Z,10.87
2017-08-26T11:44:39.747Z,8.90
2017-08-26T11:47:07.251Z,13.47
2017-08-26T11:49:34.820Z,9.10
2017-08-26T11:52:02.414Z,9.00
2017-08-26T11:54:29.914Z,10.77
2017-08-26T11:56:57.475Z,12.93
2017-08-26T11:59:24.979Z,15.90
2017-08-26T12:01:52.480Z,11.10
2017-08-26T12:04:20.034Z,16.97
2017-08-26T12:06:47.599Z,8.97
2017-08-26T12:09:15.103Z,11.03
2017-08-26T12:11:42.657Z,11.50
2017-08-26T12:14:10.199Z,11.47
2017-08-26T12:16:37.743Z,9.70
2017-08-26T12:19:05.539Z,9.20
2017-08-26T12:21:33.043Z,12.37
2017-08-26T12:24:00.604Z,9.20
2017-08-26T12:26:28.528Z,9.50
2017-08-26T12:28:56.032Z,11.20
2017-08-26T12:31:23.540Z,9.80
2017-08-26T12:33:51.396Z,9.13
2017-08-26T12:36:18.929Z,9.33
2017-08-26T12:38:46.429Z,9.70
2017-08-26T12:41:14.015Z,8.83
2017-08-26T12:43:41.515Z,8.50
2017-08-26T12:46:09.367Z,9.70
2017-08-26T12:48:37.343Z,8.90
2017-08-26T12:51:04.872Z,7.67
2017-08-26T12:53:32.375Z,8.00
2017-08-26T12:55:59.926Z,8.33
2017-08-26T12:58:27.451Z,13.13
2017-08-26T13:00:54.999Z,8.50
2017-08-26T13:03:22.802Z,9.17
2017-08-26T13:05:50.358Z,7.73
2017-08-26T13:08:17.860Z,7.90
2017-08-26T13:10:45.418Z,9.10
2017-08-26T13:13:12.919Z,7.73
2017-08-26T13:15:40.415Z,14.00
2017-08-26T13:18:08.510Z,8.40
2017-08-26T13:20:36.004Z,6.60
2017-08-26T13:23:03.500Z,9.73
2017-08-26T13:25:31.391Z,8.03
2017-08-26T13:27:58.919Z,7.53
2017-08-26T13:30:26.471Z,8.70
2017-08-26T13:32:54.023Z,7.00
2017-08-26T13:35:21.522Z,8.27
2017-08-26T13:37:49.023Z,9.73
2017-08-26T13:40:16.822Z,8.63
2017-08-26T13:42:44.324Z,10.00
2017-08-26T13:45:11.822Z,6.77
2017-08-26T13:47:39.636Z,5.70
2017-08-26T13:50:07.134Z,8.40
2017-08-26T13:52:34.651Z,12.77
2017-08-26T13:55:02.280Z,11.00
2017-08-26T13:57:29.780Z,10.00
2017-08-26T13:59:57.298Z,14.53
2017-08-26T14:02:24.867Z,11.50
2017-08-26T14:04:52.423Z,9.67
2017-08-26T14:07:19.993Z,11.07
2017-08-26T14:09:47.536Z,9.70
2017-08-26T14:12:15.073Z,16.20
2017-08-26T14:14:42.575Z,11.10
2017-08-26T14:17:10.130Z,7.70
2017-08-26T14:19:37.714Z,9.80
2017-08-26T14:22:05.213Z,13.70
2017-08-26T14:24:33.082Z,8.90
2017-08-26T14:27:00.596Z,11.30
2017-08-26T14:29:28.104Z,10.40
2017-08-26T14:31:55.660Z,10.77
2017-08-26T14:34:23.207Z,19.40
2017-08-26T14:36:50.775Z,12.60
2017-08-26T14:39:18.331Z,12.60
2017-08-26T14:41:45.842Z,10.87
2017-08-26T14:44:13.444Z,9.93
2017-08-26T14:46:41.005Z,16.00
2017-08-26T14:49:08.513Z,10.10
2017-08-26T14:51:36.030Z,13.47
2017-08-26T14:54:03.872Z,10.57
2017-08-26T14:56:32.145Z,17.87
2017-08-26T14:58:59.651Z,12.97
2017-08-26T15:01:27.473Z,11.30
2017-08-26T15:03:54.997Z,10.17
2017-08-26T15:06:22.495Z,10.70
2017-08-26T15:08:50.114Z,14.10
2017-08-26T15:11:17.619Z,11.40
2017-08-26T15:13:45.124Z,14.17
2017-08-26T15:16:13.031Z,11.23
2017-08-26T15:18:40.551Z,14.17
2017-08-26T15:21:08.063Z,12.20
2017-08-26T15:23:35.866Z,11.43
2017-08-26T15:26:04.148Z,14.90
2017-08-26T15:28:31.651Z,10.30
2017-08-26T15:30:59.308Z,12.53
2017-08-26T15:33:26.817Z,13.10
2017-08-26T15:35:54.323Z,15.20
2017-08-26T15:38:22.170Z,12.13
2017-08-26T15:40:49.691Z,11.97
2017-08-26T15:43:17.189Z,10.77
2017-08-26T15:45:45.080Z,10.50
2017-08-26T15:48:12.586Z,11.93
2017-08-26T15:50:40.154Z,11.07
2017-08-26T15:53:09.451Z,13.17
2017-08-26T15:55:36.947Z,11.60
2017-08-26T15:58:04.471Z,12.67
2017-08-26T16:00:32.816Z,10.83
2017-08-26T16:03:00.316Z,10.53
2017-08-26T16:05:27.819Z,12.43
2017-08-26T16:07:55.720Z,11.97
2017-08-26T16:10:23.474Z,14.50
2017-08-26T16:12:50.983Z,14.27
2017-08-26T16:15:18.536Z,11.53
2017-08-26T16:17:46.051Z,14.00
2017-08-26T16:20:13.560Z,12.20
2017-08-26T16:22:41.664Z,12.10
2017-08-26T16:25:09.171Z,18.03
2017-08-26T16:27:37.321Z,12.30
2017-08-26T16:30:05.118Z,12.23
2017-08-26T16:32:32.663Z,13.80
2017-08-26T16:35:00.176Z,13.17
2017-08-26T16:37:27.736Z,13.33
2017-08-26T16:39:55.243Z,17.30
2017-08-26T16:42:23.164Z,13.30
2017-08-26T16:44:50.807Z,16.93
2017-08-26T16:47:18.311Z,12.70
2017-08-26T16:49:45.819Z,11.23
2017-08-26T16:52:13.829Z,13.73
2017-08-26T16:54:41.331Z,14.27
2017-08-26T16:57:08.882Z,14.20
2017-08-26T16:59:37.567Z,11.70
2017-08-26T17:02:05.076Z,13.27
2017-08-26T17:04:32.579Z,11.97
2017-08-26T17:07:00.131Z,13.20
2017-08-26T17:09:27.634Z,12.90
2017-08-26T17:11:55.135Z,12.00
2017-08-26T17:14:22.944Z,13.00
2017-08-26T17:16:50.491Z,11.77
2017-08-26T17:19:18.138Z,11.33
2017-08-26T17:21:45.999Z,15.10
2017-08-26T17:24:13.515Z,14.90
2017-08-26T17:26:41.014Z,12.20
2017-08-26T17:29:08.700Z,13.03
2017-08-26T17:31:36.202Z,15.03
2017-08-26T17:34:03.706Z,13.93
2017-08-26T17:36:31.295Z,15.90
2017-08-26T17:38:58.794Z,14.93
2017-08-26T17:41:26.312Z,14.30
2017-08-26T17:43:53.968Z,15.97
2017-08-26T17:46:21.817Z,17.10
2017-08-26T17:48:49.375Z,13.93
2017-08-26T17:51:16.932Z,15.53
2017-08-26T17:53:44.603Z,14.77
2017-08-26T17:56:12.135Z,15.90
2017-08-26T17:58:40.055Z,12.73
2017-08-26T18:01:07.839Z,13.97
2017-08-26T18:03:35.392Z,13.60
2017-08-26T18:06:03.208Z,14.83
2017-08-26T18:08:30.733Z,17.43
2017-08-26T18:10:58.239Z,12.90
2017-08-26T18:13:25.898Z,12.50
2017-08-26T18:15:53.407Z,15.87
2017-08-26T18:18:20.959Z,13.07
2017-08-26T18:20:48.739Z,14.03
2017-08-26T18:23:16.249Z,19.13
2017-08-26T18:25:44.362Z,12.67
2017-08-26T18:28:12.223Z,13.63
2017-08-26T18:30:39.772Z,14.27
2017-08-26T18:33:07.550Z,15.27
2017-08-26T18:35:35.096Z,15.20
2017-08-26T18:38:02.639Z,14.67
2017-08-26T18:40:30.162Z,15.77
2017-08-26T18:42:57.775Z,16.30
2017-08-26T18:45:25.367Z,21.80
2017-08-26T18:47:53.141Z,19.33
2017-08-26T18:50:20.805Z,19.10
2017-08-26T18:52:48.319Z,19.90
2017-08-26T18:55:15.927Z,15.30
2017-08-26T18:57:43.491Z,16.60
2017-08-26T19:00:11.208Z,20.93
2017-08-26T19:02:38.743Z,26.17
2017-08-26T19:05:06.371Z,17.13
2017-08-26T19:07:33.892Z,15.20
2017-08-26T19:10:01.519Z,14.53
2017-08-26T19:12:29.371Z,19.43
2017-08-26T19:14:56.949Z,22.40
2017-08-26T19:17:24.456Z,19.90
2017-08-26T19:19:52.103Z,19.17
2017-08-26T19:22:19.643Z,22.63
2017-08-26T19:24:47.429Z,17.27
2017-08-26T19:27:15.029Z,19.00
2017-08-26T19:29:43.626Z,17.70
2017-08-26T19:32:11.138Z,20.57
2017-08-26T19:34:38.935Z,20.27
2017-08-26T19:37:06.558Z,19.70
2017-08-26T19:39:34.064Z,16.40
2017-08-26T19:42:01.730Z,18.63
2017-08-26T19:44:29.231Z,19.20
2017-08-26T19:46:56.773Z,16.97
2017-08-26T19:49:25.239Z,18.00
2017-08-26T19:51:52.747Z,18.40
2017-08-26T19:54:20.250Z,18.30
2017-08-26T19:56:47.811Z,22.60
2017-08-26T19:59:15.315Z,17.00
2017-08-26T20:01:42.828Z,19.93
2017-08-26T20:04:10.631Z,19.47
2017-08-26T20:06:38.351Z,19.90
2017-08-26T20:09:05.871Z,18.50
2017-08-26T20:11:33.522Z,18.33
2017-08-26T20:14:01.106Z,20.50
2017-08-26T20:16:28.614Z,18.87
2017-08-26T20:18:56.171Z,17.10
2017-08-26T20:21:24.454Z,19.50
2017-08-26T20:23:52.738Z,21.93
2017-08-26T20:26:20.385Z,17.70
2017-08-26T20:28:47.886Z,19.40
2017-08-26T20:31:15.398Z,18.93
2017-08-26T20:33:42.943Z,18.17
2017-08-26T20:36:10.443Z,24.87
2017-08-26T20:38:37.956Z,20.20
2017-08-26T20:41:05.604Z,22.17
2017-08-26T20:43:33.119Z,23.30
2017-08-26T20:46:00.668Z,36.20
2017-08-26T20:48:28.323Z,22.37
2017-08-26T20:50:55.831Z,21.17
2017-08-26T20:53:23.339Z,21.60
2017-08-26T20:55:50.912Z,26.80
2017-08-26T20:58:18.420Z,25.50
2017-08-26T21:00:45.927Z,19.80
2017-08-26T21:03:13.537Z,18.40
2017-08-26T21:05:41.046Z,22.63
2017-08-26T21:08:08.556Z,17.97
2017-08-26T21:10:36.266Z,19.17
2017-08-26T21:13:03.772Z,20.97
2017-08-26T21:15:31.275Z,22.10
2017-08-26T21:17:59.439Z,21.47
2017-08-26T21:20:26.942Z,21.10
2017-08-26T21:22:54.443Z,24.10
2017-08-26T21:25:22.029Z,23.20
2017-08-26T21:27:49.535Z,20.10
2017-08-26T21:30:17.044Z,22.00
2017-08-26T21:32:44.846Z,22.43
2017-08-26T21:35:12.453Z,29.27
2017-08-26T21:37:39.970Z,24.67
2017-08-26T21:40:07.515Z,29.50
2017-08-26T21:42:35.035Z,28.33
2017-08-26T21:45:02.540Z,24.73
2017-08-26T21:47:30.160Z,28.13
2017-08-26T21:49:57.714Z,22.57
2017-08-26T21:52:25.222Z,19.57
2017-08-26T21:54:52.790Z,27.80
2017-08-26T21:57:20.320Z,24.10
2017-08-26T21:59:47.864Z,25.30
2017-08-26T22:02:15.744Z,25.90
2017-08-26T22:04:43.266Z,27.23
2017-08-26T22:07:11.064Z,26.00
2017-08-26T22:09:38.618Z,24.90
2017-08-26T22:12:06.151Z,23.20
2017-08-26T22:14:33.656Z,24.53
2017-08-26T22:17:01.515Z,25.13
2017-08-26T22:19:29.504Z,21.63
2017-08-26T22:21:57.071Z,22.73
2017-08-26T22:24:24.631Z,27.43
2017-08-26T22:26:52.146Z,21.50
2017-08-26T22:29:19.655Z,23.90
2017-08-26T22:31:47.291Z,20.20
2017-08-26T22:34:14.800Z,20.07
2017-08-26T22:36:42.350Z,21.83
2017-08-26T22:39:09.891Z,21.30
2017-08-26T22:41:37.404Z,23.73
2017-08-26T22:44:04.979Z,22.33
2017-08-26T22:46:32.530Z,27.10
2017-08-26T22:49:00.035Z,23.53
2017-08-26T22:51:27.547Z,27.67
2017-08-26T22:53:56.034Z,30.10
2017-08-26T22:56:23.576Z,20.60
2017-08-26T22:58:51.159Z,27.07
2017-08-26T23:01:18.706Z,24.87
2017-08-26T23:03:46.292Z,25.03
2017-08-26T23:06:13.807Z,27.37
2017-08-26T23:08:41.657Z,22.23
2017-08-26T23:11:09.174Z,27.53
2017-08-26T23:13:36.688Z,22.00
2017-08-26T23:16:04.478Z,24.70
2017-08-26T23:18:31.988Z,28.03
2017-08-26T23:20:59.499Z,26.03
2017-08-26T23:23:27.160Z,30.43
2017-08-26T23:25:54.678Z,27.70
2017-08-26T23:28:22.187Z,29.00
2017-08-26T23:30:49.793Z,24.87
2017-08-26T23:33:17.298Z,23.37
2017-08-26T23:35:44.860Z,26.97
2017-08-26T23:38:12.418Z,26.70
2017-08-26T23:40:39.933Z,23.80
2017-08-26T23:43:07.689Z,27.57
2017-08-26T23:45:35.587Z,25.93
2017-08-26T23:48:03.091Z,22.27
2017-08-26T23:50:30.610Z,26.60
2017-08-26T23:52:58.604Z,25.77
2017-08-26T23:55:26.185Z,31.90
2017-08-26T23:57:53.686Z,27.93
